Time;durP1;ratioP1;P1;durP2;ratioP2;P2;SDS_P1;SDS_P2;PMS_P1;PMS_P2;Temp;Humidity;BMP_temperature;BMP_pressure;BME280_temperature;BME280_humidity;BME280_pressure;Samples;Min_cycle;Max_cycle;Signal;HPM_P1;HPM_P2
2022/04/30 00:00:52;;;;;;;5.55;3.75;;;6.00;99.90;;;;;;5052467;28;20374;-66
2022/04/30 00:03:19;;;;;;;8.40;3.75;;;5.90;99.90;;;;;;5052176;28;20095;-65
2022/04/30 00:05:44;;;;;;;7.97;4.47;;;5.80;99.90;;;;;;5051766;28;20525;-65
2022/04/30 00:08:10;;;;;;;6.10;3.58;;;5.80;99.90;;;;;;5052473;28;20060;-66
2022/04/30 00:10:39;;;;;;;7.93;3.90;;;5.70;99.90;;;;;;5052439;28;20073;-65
2022/04/30 00:13:10;;;;;;;9.55;3.85;;;5.70;99.90;;;;;;5052313;28;20032;-66
2022/04/30 00:15:36;;;;;;;10.05;3.63;;;5.70;99.90;;;;;;5052316;28;20029;-65
2022/04/30 00:18:02;;;;;;;6.28;3.90;;;5.70;99.90;;;;;;5052357;28;20033;-65
2022/04/30 00:20:28;;;;;;;8.05;4.07;;;5.60;99.90;;;;;;5052181;28;20159;-66
2022/04/30 00:22:54;;;;;;;9.65;4.00;;;5.60;99.90;;;;;;5052214;28;20032;-66
2022/04/30 00:25:21;;;;;;;7.28;3.53;;;5.50;99.90;;;;;;5052388;28;20047;-65
2022/04/30 00:27:47;;;;;;;6.32;3.53;;;5.50;99.90;;;;;;5052355;28;20456;-65
2022/04/30 00:30:14;;;;;;;6.72;3.67;;;5.40;99.90;;;;;;5052222;28;20033;-65
2022/04/30 00:32:40;;;;;;;7.10;3.90;;;5.40;99.90;;;;;;5052101;28;20033;-65
2022/04/30 00:35:07;;;;;;;9.93;4.05;;;5.30;99.90;;;;;;5052104;28;20033;-65
2022/04/30 00:37:32;;;;;;;6.45;4.35;;;5.30;99.90;;;;;;5052340;28;20068;-65
2022/04/30 00:39:58;;;;;;;5.90;3.63;;;5.40;99.90;;;;;;5052145;28;20416;-65
2022/04/30 00:42:24;;;;;;;7.00;3.88;;;5.40;99.90;;;;;;5052164;28;20037;-65
2022/04/30 00:44:49;;;;;;;7.40;4.25;;;5.40;99.90;;;;;;5052096;28;20059;-66
2022/04/30 00:47:18;;;;;;;8.98;5.00;;;5.50;99.90;;;;;;5051965;28;20128;-65
2022/04/30 00:49:47;;;;;;;9.35;4.40;;;5.60;99.90;;;;;;5051766;28;20041;-65
2022/04/30 00:52:15;;;;;;;8.82;4.45;;;5.50;99.90;;;;;;5051979;28;20033;-65
2022/04/30 00:54:41;;;;;;;7.03;3.85;;;5.40;99.90;;;;;;5051852;28;20055;-65
2022/04/30 00:57:11;;;;;;;6.47;3.50;;;5.40;99.90;;;;;;5052017;28;20037;-65
2022/04/30 00:59:42;;;;;;;8.10;3.72;;;5.40;99.90;;;;;;5051627;28;20056;-66
2022/04/30 01:02:11;;;;;;;8.15;4.25;;;5.40;99.90;;;;;;5051827;28;20032;-65
2022/04/30 01:04:37;;;;;;;8.23;4.35;;;5.40;99.90;;;;;;5051930;28;20438;-65
2022/04/30 01:07:07;;;;;;;6.78;3.95;;;5.40;99.90;;;;;;5051948;28;20025;-66
2022/04/30 01:09:38;;;;;;;6.60;4.07;;;5.40;99.90;;;;;;5051828;28;20025;-65
2022/04/30 01:12:12;;;;;;;7.47;4.20;;;5.30;99.90;;;;;;5051819;28;20099;-67
2022/04/30 01:14:40;;;;;;;8.38;3.92;;;5.40;99.90;;;;;;5051986;28;20563;-67
2022/04/30 01:17:08;;;;;;;7.00;4.00;;;5.30;99.90;;;;;;5055213;28;20378;-67
2022/04/30 01:19:39;;;;;;;6.88;3.78;;;5.30;99.90;;;;;;5055467;28;20033;-66
2022/04/30 01:22:26;;;;;;;7.60;3.60;;;5.20;99.90;;;;;;5055397;28;20040;-65
2022/04/30 01:24:56;;;;;;;6.40;4.05;;;5.10;99.90;;;;;;5055166;28;20066;-65
2022/04/30 01:27:25;;;;;;;8.05;4.13;;;5.00;99.90;;;;;;5055115;28;20493;-65
2022/04/30 01:29:55;;;;;;;6.55;3.88;;;5.00;99.90;;;;;;5055394;28;20493;-64
2022/04/30 01:38:03;;;;;;;11.82;5.13;;;5.10;99.90;;;;;;5040114;28;20400;-65
2022/04/30 01:40:29;;;;;;;7.90;4.35;;;5.10;99.90;;;;;;5055027;28;20029;-65
2022/04/30 01:43:00;;;;;;;8.45;4.72;;;5.10;99.90;;;;;;5055046;28;20036;-66
2022/04/30 01:45:29;;;;;;;8.55;4.72;;;5.00;99.90;;;;;;5054976;28;20033;-66
2022/04/30 01:47:56;;;;;;;7.60;4.53;;;5.00;99.90;;;;;;5055116;28;20063;-65
2022/04/30 01:50:23;;;;;;;8.18;4.30;;;4.90;99.90;;;;;;5055062;28;20060;-65
2022/04/30 01:52:49;;;;;;;8.82;3.88;;;4.90;99.90;;;;;;5054747;28;20048;-65
2022/04/30 01:55:15;;;;;;;7.70;4.45;;;4.80;99.90;;;;;;5055032;28;20078;-66
2022/04/30 01:57:42;;;;;;;10.77;4.90;;;4.70;99.90;;;;;;5054543;28;20108;-65
2022/04/30 02:00:09;;;;;;;7.40;4.20;;;4.70;99.90;;;;;;5054565;28;20056;-66
2022/04/30 02:02:36;;;;;;;8.68;5.07;;;4.70;99.90;;;;;;5054565;28;20056;-65
2022/04/30 02:05:09;;;;;;;8.63;4.18;;;4.60;99.90;;;;;;5036716;28;20033;-66
2022/04/30 02:07:43;;;;;;;7.95;4.40;;;4.60;99.90;;;;;;5054543;28;20036;-65
2022/04/30 02:10:11;;;;;;;5.85;4.28;;;4.70;99.90;;;;;;5054496;28;20032;-67
2022/04/30 02:12:38;;;;;;;10.55;4.90;;;4.70;99.90;;;;;;5054804;28;20036;-67
2022/04/30 02:15:04;;;;;;;7.05;3.78;;;4.70;99.90;;;;;;5054342;28;20091;-67
2022/04/30 02:17:35;;;;;;;7.90;4.25;;;4.70;99.90;;;;;;5054307;28;20036;-65
2022/04/30 02:22:46;;;;;;;8.35;3.78;;;4.80;99.90;;;;;;5054299;28;20743;-65
2022/04/30 02:25:14;;;;;;;8.52;4.65;;;4.90;99.90;;;;;;5054147;28;20037;-66
2022/04/30 02:27:43;;;;;;;8.10;4.72;;;4.80;99.90;;;;;;5053165;28;20474;-65
2022/04/30 02:30:11;;;;;;;7.70;4.53;;;4.80;99.90;;;;;;5054193;28;20117;-65
2022/04/30 02:32:48;;;;;;;9.65;5.05;;;4.70;99.90;;;;;;5054101;28;20025;-65
2022/04/30 02:35:23;;;;;;;10.43;4.72;;;4.70;99.90;;;;;;5054085;28;20040;-64
2022/04/30 02:37:52;;;;;;;8.82;4.28;;;4.80;99.90;;;;;;5053823;28;20033;-65
2022/04/30 02:40:19;;;;;;;9.55;4.45;;;4.80;99.90;;;;;;5054050;28;20428;-65
2022/04/30 02:42:46;;;;;;;8.02;4.63;;;4.90;99.90;;;;;;5053689;28;20103;-65
2022/04/30 02:45:13;;;;;;;8.32;4.20;;;5.10;99.90;;;;;;5053799;28;20041;-65
2022/04/30 02:47:41;;;;;;;10.82;4.93;;;5.20;99.90;;;;;;5053843;28;20020;-65
2022/04/30 02:50:08;;;;;;;8.90;4.75;;;5.30;99.90;;;;;;5053840;28;20029;-65
2022/04/30 02:52:34;;;;;;;9.05;3.97;;;5.40;99.90;;;;;;5053547;28;20405;-64
2022/04/30 02:55:00;;;;;;;7.97;4.68;;;5.30;99.90;;;;;;5053572;28;20044;-64
2022/04/30 02:57:39;;;;;;;8.10;4.13;;;5.40;99.90;;;;;;5053717;28;20529;-64
2022/04/30 03:00:06;;;;;;;8.52;4.20;;;5.40;99.90;;;;;;5053534;28;20045;-65
2022/04/30 03:02:32;;;;;;;7.18;4.95;;;5.40;99.90;;;;;;5053542;28;20115;-65
2022/04/30 03:04:58;;;;;;;8.48;4.63;;;5.50;99.90;;;;;;5053800;28;20450;-65
2022/04/30 03:07:24;;;;;;;7.80;5.10;;;5.60;99.90;;;;;;5053334;28;20040;-65
2022/04/30 03:09:50;;;;;;;8.07;4.10;;;5.60;99.90;;;;;;5053467;28;20086;-64
2022/04/30 03:12:16;;;;;;;8.73;5.03;;;5.70;99.90;;;;;;5053797;28;20472;-64
2022/04/30 03:14:42;;;;;;;11.32;4.35;;;5.80;99.90;;;;;;5053201;28;20032;-64
2022/04/30 03:22:38;;;;;;;7.28;4.53;;;5.90;99.90;;;;;;5053377;28;20082;-67
2022/04/30 03:25:04;;;;;;;11.60;5.18;;;5.90;99.90;;;;;;5053019;28;20439;-67
2022/04/30 03:27:32;;;;;;;9.68;4.65;;;6.00;99.90;;;;;;5053016;28;20041;-67
2022/04/30 03:29:57;;;;;;;8.95;4.00;;;6.00;99.90;;;;;;5052897;28;20045;-67
2022/04/30 03:32:24;;;;;;;7.53;4.28;;;6.10;99.90;;;;;;5035249;28;20049;-67
2022/04/30 03:34:50;;;;;;;7.00;4.30;;;6.20;99.90;;;;;;5051638;28;20117;-67
2022/04/30 03:37:17;;;;;;;9.55;4.18;;;6.30;99.90;;;;;;5052879;28;20033;-67
2022/04/30 03:39:43;;;;;;;9.60;3.83;;;6.40;99.90;;;;;;5034889;28;20035;-67
2022/04/30 03:42:09;;;;;;;6.65;4.20;;;6.40;99.90;;;;;;5052918;28;20112;-67
2022/04/30 03:44:34;;;;;;;5.72;3.53;;;6.40;99.90;;;;;;5052518;28;20033;-67
2022/04/30 03:47:00;;;;;;;7.95;4.00;;;6.50;99.90;;;;;;5052766;28;20547;-67
2022/04/30 03:49:26;;;;;;;8.98;4.03;;;6.60;99.90;;;;;;5052846;28;20023;-67
2022/04/30 03:51:54;;;;;;;7.85;3.90;;;6.60;99.90;;;;;;5052537;28;20045;-67
2022/04/30 03:54:19;;;;;;;5.63;3.95;;;6.60;99.90;;;;;;5052688;28;20036;-67
2022/04/30 03:56:45;;;;;;;8.45;3.75;;;6.70;99.90;;;;;;5052724;28;20523;-67
2022/04/30 03:59:10;;;;;;;9.30;4.38;;;6.70;99.90;;;;;;5052124;28;20053;-64
2022/04/30 04:01:38;;;;;;;6.65;3.97;;;6.70;99.90;;;;;;5052556;28;20095;-63
2022/04/30 04:04:03;;;;;;;9.95;4.20;;;6.80;99.90;;;;;;5052521;28;20033;-64
2022/04/30 04:06:31;;;;;;;7.38;4.20;;;6.80;99.90;;;;;;5052444;28;20474;-64
2022/04/30 04:08:59;;;;;;;6.38;3.80;;;6.80;99.90;;;;;;5052463;28;20104;-67
2022/04/30 04:11:26;;;;;;;6.43;4.13;;;6.80;99.90;;;;;;5052362;28;20029;-67
2022/04/30 04:19:23;;;;;;;6.38;3.47;;;6.80;99.90;;;;;;5052613;28;20535;-67
2022/04/30 04:21:50;;;;;;;6.90;3.78;;;6.80;99.90;;;;;;5052193;28;20040;-67
2022/04/30 04:27:01;;;;;;;6.97;4.05;;;6.90;99.90;;;;;;5052619;28;20087;-67
2022/04/30 04:29:27;;;;;;;4.75;3.80;;;6.90;99.90;;;;;;5052392;28;20489;-67
2022/04/30 04:31:52;;;;;;;8.50;4.22;;;7.00;99.90;;;;;;5052182;28;20029;-67
2022/04/30 04:34:18;;;;;;;4.90;3.25;;;7.00;99.90;;;;;;5052332;28;20029;-67
2022/04/30 04:36:43;;;;;;;7.88;3.90;;;7.10;99.90;;;;;;5051983;28;20029;-67
2022/04/30 04:39:12;;;;;;;6.35;3.90;;;7.10;99.90;;;;;;5052103;28;20045;-65
2022/04/30 04:41:38;;;;;;;6.57;3.20;;;7.10;99.90;;;;;;5052283;28;20037;-65
2022/04/30 04:44:04;;;;;;;5.28;3.50;;;7.20;99.90;;;;;;5052157;28;20021;-65
2022/04/30 04:46:30;;;;;;;6.07;3.55;;;7.20;99.90;;;;;;5052022;28;20029;-65
2022/04/30 04:48:56;;;;;;;4.45;2.75;;;7.20;99.90;;;;;;5052057;28;20029;-66
2022/04/30 04:51:22;;;;;;;6.30;3.20;;;7.30;99.90;;;;;;5054302;28;20531;-66
2022/04/30 04:53:48;;;;;;;6.68;3.45;;;7.30;99.90;;;;;;5055896;28;20409;-65
2022/04/30 04:56:13;;;;;;;5.03;3.00;;;7.30;99.90;;;;;;5055880;28;20037;-65
2022/04/30 04:58:42;;;;;;;5.72;2.97;;;7.40;99.90;;;;;;5055642;28;20049;-65
2022/04/30 05:01:08;;;;;;;6.30;3.67;;;7.40;99.90;;;;;;5055792;28;20052;-66
2022/04/30 05:03:33;;;;;;;7.05;3.03;;;7.50;99.90;;;;;;5055703;28;20048;-66
2022/04/30 05:05:59;;;;;;;4.60;2.65;;;7.50;99.90;;;;;;5055542;28;20037;-65
2022/04/30 05:08:24;;;;;;;5.20;2.95;;;7.50;99.90;;;;;;5055678;28;20033;-65
2022/04/30 05:10:50;;;;;;;8.20;3.60;;;7.60;99.90;;;;;;5055707;28;20091;-65
2022/04/30 05:13:16;;;;;;;9.65;2.90;;;7.60;99.90;;;;;;5055695;28;20025;-64
2022/04/30 05:15:42;;;;;;;5.55;2.83;;;7.60;99.90;;;;;;5055511;28;20041;-65
2022/04/30 05:18:08;;;;;;;5.78;2.88;;;7.70;99.90;;;;;;5056059;28;20040;-65
2022/04/30 05:20:34;;;;;;;6.78;2.33;;;7.70;99.90;;;;;;5055320;28;20021;-67
2022/04/30 05:23:00;;;;;;;3.35;2.30;;;7.70;99.90;;;;;;5055366;28;20033;-64
2022/04/30 05:25:25;;;;;;;6.28;2.90;;;7.80;99.90;;;;;;5055247;28;20112;-65
2022/04/30 05:27:52;;;;;;;3.80;2.15;;;7.90;99.90;;;;;;5055327;28;20504;-65
2022/04/30 05:30:18;;;;;;;4.13;2.60;;;7.90;99.90;;;;;;5055211;28;20037;-65
2022/04/30 05:32:44;;;;;;;4.63;2.50;;;8.00;99.90;;;;;;5055142;28;20044;-65
2022/04/30 05:35:10;;;;;;;3.97;2.42;;;8.10;99.90;;;;;;5055048;28;20029;-65
2022/04/30 05:37:36;;;;;;;8.02;2.60;;;8.10;99.90;;;;;;5055023;28;20115;-65
2022/04/30 05:40:02;;;;;;;4.22;2.15;;;8.10;99.90;;;;;;5055032;28;20061;-66
2022/04/30 05:42:27;;;;;;;2.60;2.30;;;8.10;99.90;;;;;;5037164;28;20029;-66
2022/04/30 05:44:53;;;;;;;3.38;2.42;;;8.10;99.90;;;;;;5054790;28;20111;-65
2022/04/30 05:47:19;;;;;;;4.05;2.17;;;8.20;99.90;;;;;;5054946;28;20033;-66
2022/04/30 05:49:45;;;;;;;3.17;2.42;;;8.20;99.90;;;;;;5054601;28;20375;-66
2022/04/30 05:52:11;;;;;;;4.00;2.45;;;8.20;99.90;;;;;;5055125;28;20040;-65
2022/04/30 05:54:37;;;;;;;4.82;2.22;;;8.30;99.90;;;;;;5055211;28;20045;-65
2022/04/30 05:57:03;;;;;;;2.78;2.08;;;8.20;99.90;;;;;;5054973;28;20530;-66
2022/04/30 05:59:29;;;;;;;4.35;2.30;;;8.30;99.90;;;;;;5054401;28;20049;-65
2022/04/30 06:01:55;;;;;;;3.75;3.00;;;8.20;99.90;;;;;;5053318;28;20041;-67
2022/04/30 06:04:21;;;;;;;5.35;2.30;;;8.20;99.90;;;;;;5036685;28;20037;-68
2022/04/30 06:06:47;;;;;;;4.15;2.67;;;8.20;99.90;;;;;;5054706;28;20485;-65
2022/04/30 06:09:13;;;;;;;5.05;2.30;;;8.20;99.90;;;;;;5054700;28;20056;-66
2022/04/30 06:11:39;;;;;;;4.85;2.22;;;8.30;99.90;;;;;;5054529;28;20036;-67
2022/04/30 06:14:05;;;;;;;5.68;2.25;;;8.30;99.90;;;;;;5054381;28;20045;-65
2022/04/30 06:16:30;;;;;;;3.22;2.13;;;8.30;99.90;;;;;;5054887;28;20033;-65
2022/04/30 06:18:56;;;;;;;4.00;2.30;;;8.30;99.90;;;;;;5054228;28;20031;-66
2022/04/30 06:21:23;;;;;;;3.50;2.47;;;8.30;99.90;;;;;;5054267;28;20385;-66
2022/04/30 06:23:52;;;;;;;3.10;1.98;;;8.30;99.90;;;;;;5054307;28;20041;-68
2022/04/30 06:26:18;;;;;;;3.83;2.38;;;8.20;99.90;;;;;;5054253;28;20036;-68
2022/04/30 06:28:44;;;;;;;4.22;2.13;;;8.20;99.90;;;;;;5054098;28;20428;-68
2022/04/30 06:31:09;;;;;;;2.72;1.75;;;8.20;99.90;;;;;;5054134;28;20029;-68
2022/04/30 06:33:35;;;;;;;4.43;2.28;;;8.20;99.90;;;;;;5053973;28;20456;-69
2022/04/30 06:36:00;;;;;;;4.53;2.28;;;8.40;99.90;;;;;;5054024;28;20107;-68
2022/04/30 06:38:26;;;;;;;3.67;1.90;;;8.60;99.90;;;;;;5054110;28;20386;-68
2022/04/30 06:40:52;;;;;;;2.33;1.90;;;8.70;99.90;;;;;;5054188;28;20453;-69
2022/04/30 06:43:18;;;;;;;3.83;1.95;;;8.80;99.90;;;;;;5053841;28;20045;-68
2022/04/30 06:45:44;;;;;;;7.30;2.10;;;9.00;99.90;;;;;;5053720;28;20033;-68
2022/04/30 06:48:10;;;;;;;3.55;1.88;;;9.00;99.90;;;;;;5053706;28;20033;-68
2022/04/30 06:50:36;;;;;;;6.10;2.20;;;9.20;99.90;;;;;;5053872;28;20448;-68
2022/04/30 06:58:41;;;;;;;4.50;1.85;;;9.60;99.90;;;;;;5053360;28;20083;-69
2022/04/30 07:01:37;;;;;;;2.83;1.95;;;9.70;99.40;;;;;;5053701;28;20036;-68
2022/04/30 07:04:05;;;;;;;5.63;2.47;;;9.60;99.30;;;;;;5053366;28;20416;-68
2022/04/30 07:06:32;;;;;;;2.55;1.42;;;9.50;98.50;;;;;;5053458;28;20087;-68
2022/04/30 07:08:58;;;;;;;4.20;2.08;;;9.30;98.80;;;;;;5053210;28;20099;-68
2022/04/30 07:11:24;;;;;;;3.42;2.05;;;9.20;99.20;;;;;;5053453;28;20021;-67
2022/04/30 07:13:49;;;;;;;3.58;1.90;;;9.20;99.10;;;;;;5052809;28;20048;-68
2022/04/30 07:16:15;;;;;;;2.10;1.60;;;9.30;99.50;;;;;;5053107;28;20041;-67
2022/04/30 07:18:41;;;;;;;2.83;1.58;;;9.50;99.00;;;;;;5050898;28;20037;-67
2022/04/30 07:21:06;;;;;;;3.40;2.00;;;9.80;99.40;;;;;;5052880;28;20481;-68
2022/04/30 07:23:33;;;;;;;2.28;1.80;;;10.00;99.10;;;;;;5052709;28;20488;-67
2022/04/30 07:25:58;;;;;;;3.55;1.80;;;10.40;98.60;;;;;;5052492;28;20033;-66
2022/04/30 07:28:25;;;;;;;2.15;1.70;;;10.90;97.80;;;;;;5052960;28;20473;-66
2022/04/30 07:30:51;;;;;;;3.00;1.77;;;11.20;97.20;;;;;;5052898;28;20044;-66
2022/04/30 07:33:16;;;;;;;3.15;2.08;;;11.60;96.30;;;;;;5052494;28;20555;-67
2022/04/30 07:35:42;;;;;;;5.20;2.00;;;11.70;95.50;;;;;;5052916;28;20392;-67
2022/04/30 07:38:08;;;;;;;3.58;2.05;;;11.80;95.80;;;;;;5060528;28;20549;-66
2022/04/30 07:40:38;;;;;;;2.65;1.45;;;11.90;95.50;;;;;;5072091;28;20029;-67
2022/04/30 07:43:03;;;;;;;2.63;1.90;;;12.10;94.40;;;;;;5072686;28;20040;-68
2022/04/30 07:45:29;;;;;;;2.63;1.80;;;12.10;94.80;;;;;;5072519;28;20477;-67
2022/04/30 07:47:55;;;;;;;4.20;2.10;;;12.20;94.70;;;;;;5072066;28;20033;-66
2022/04/30 07:50:22;;;;;;;2.00;1.60;;;12.20;93.90;;;;;;5072545;28;20041;-67
2022/04/30 07:52:48;;;;;;;2.45;1.77;;;12.30;94.30;;;;;;5065599;28;20107;-67
2022/04/30 07:55:14;;;;;;;2.80;1.77;;;12.20;93.80;;;;;;5052042;28;20037;-66
2022/04/30 07:57:40;;;;;;;3.08;1.77;;;12.40;94.30;;;;;;5051714;28;20536;-66
2022/04/30 08:00:06;;;;;;;2.17;1.70;;;12.50;93.50;;;;;;5052105;28;20116;-66
2022/04/30 08:02:32;;;;;;;4.38;2.08;;;12.50;93.60;;;;;;5052003;28;20033;-66
2022/04/30 08:04:58;;;;;;;3.17;1.67;;;12.30;94.10;;;;;;5050360;28;20048;-66
2022/04/30 08:07:24;;;;;;;3.53;2.13;;;12.20;94.30;;;;;;5052584;28;20024;-67
2022/04/30 08:09:50;;;;;;;6.55;2.30;;;12.20;93.70;;;;;;5052330;28;20496;-66
2022/04/30 08:12:18;;;;;;;5.53;2.50;;;12.20;94.40;;;;;;5052331;28;20029;-66
2022/04/30 08:14:44;;;;;;;4.32;2.88;;;12.00;93.80;;;;;;5052431;28;20397;-66
2022/04/30 08:17:10;;;;;;;2.05;1.67;;;11.90;93.90;;;;;;5052450;28;20029;-66
2022/04/30 08:19:36;;;;;;;3.63;1.90;;;11.70;94.40;;;;;;5052215;28;20067;-66
2022/04/30 08:22:02;;;;;;;2.80;1.85;;;11.50;94.20;;;;;;5052155;28;20033;-66
2022/04/30 08:24:28;;;;;;;2.75;1.85;;;11.40;95.30;;;;;;5052252;28;20031;-67
2022/04/30 08:26:53;;;;;;;3.08;2.15;;;11.50;95.60;;;;;;5055681;28;20033;-68
2022/04/30 08:29:19;;;;;;;2.97;2.15;;;11.50;95.80;;;;;;5056430;28;20107;-66
2022/04/30 08:31:44;;;;;;;3.17;1.95;;;11.60;95.90;;;;;;5056147;28;20033;-67
2022/04/30 08:34:10;;;;;;;4.05;2.00;;;11.90;95.30;;;;;;5056340;28;20037;-67
2022/04/30 08:36:36;;;;;;;3.00;1.90;;;12.20;95.50;;;;;;5056065;28;20041;-67
2022/04/30 08:39:02;;;;;;;5.93;2.03;;;12.30;94.60;;;;;;5056161;28;20041;-67
2022/04/30 08:41:27;;;;;;;3.50;2.35;;;12.50;94.70;;;;;;5048773;28;20117;-67
2022/04/30 08:43:53;;;;;;;4.88;2.33;;;12.70;94.80;;;;;;5016749;28;20033;-68
2022/04/30 08:46:20;;;;;;;2.80;2.15;;;12.80;94.30;;;;;;5042110;28;20092;-68
2022/04/30 08:48:49;;;;;;;6.93;2.72;;;12.80;94.10;;;;;;5042831;28;20029;-67
2022/04/30 08:51:15;;;;;;;4.72;2.33;;;13.00;93.50;;;;;;5043661;28;20068;-68
2022/04/30 08:53:41;;;;;;;3.70;2.10;;;13.00;92.80;;;;;;5044231;28;20052;-68
2022/04/30 08:56:08;;;;;;;4.88;2.20;;;13.20;93.00;;;;;;5048083;28;20473;-68
2022/04/30 08:58:34;;;;;;;5.35;2.50;;;13.40;93.70;;;;;;5049136;28;20373;-68
2022/04/30 09:01:02;;;;;;;4.03;2.30;;;13.60;92.60;;;;;;5053642;28;20092;-68
2022/04/30 09:03:36;;;;;;;3.03;2.13;;;13.70;92.20;;;;;;5056870;28;20044;-68
2022/04/30 09:06:08;;;;;;;3.80;2.05;;;14.00;93.00;;;;;;5058376;28;20027;-67
2022/04/30 09:08:35;;;;;;;3.70;2.35;;;14.40;91.50;;;;;;5064234;28;20128;-68
2022/04/30 09:11:12;;;;;;;4.27;2.43;;;14.70;90.80;;;;;;5055036;28;20550;-66
2022/04/30 09:13:44;;;;;;;;;;;14.90;89.50;;;;;;5056835;28;20262;-69
2022/04/30 09:16:24;;;;;;;3.88;2.13;;;15.30;89.80;;;;;;5053456;28;19912;-67
2022/04/30 09:18:52;;;;;;;4.57;2.33;;;15.70;90.00;;;;;;5046266;28;20033;-69
2022/04/30 09:21:19;;;;;;;5.82;2.42;;;15.60;88.60;;;;;;5055518;28;20102;-69
2022/04/30 09:23:45;;;;;;;5.53;2.33;;;16.30;87.60;;;;;;5049278;28;20547;-67
2022/04/30 09:26:11;;;;;;;4.78;2.30;;;16.20;83.30;;;;;;5047583;28;20258;-69
2022/04/30 09:28:44;;;;;;;3.08;1.83;;;15.80;86.20;;;;;;5044032;28;20086;-66
2022/04/30 09:31:16;;;;;;;4.53;2.28;;;15.60;86.50;;;;;;5043895;28;20079;-68
2022/04/30 09:33:55;;;;;;;3.35;2.03;;;15.60;88.40;;;;;;5040622;28;20033;-67
2022/04/30 09:39:17;;;;;;;7.75;3.13;;;15.20;87.90;;;;;;5035310;28;20164;-68
2022/04/30 09:41:43;;;;;;;3.77;2.20;;;15.30;88.40;;;;;;5035018;28;20025;-67
2022/04/30 09:44:12;;;;;;;7.18;2.78;;;14.70;89.20;;;;;;5034951;28;20038;-67
2022/04/30 09:46:40;;;;;;;4.53;2.42;;;14.60;89.30;;;;;;5034836;28;20045;-68
2022/04/30 09:54:46;;;;;;;4.75;2.92;;;14.70;89.80;;;;;;5034901;28;20037;-68
2022/04/30 09:57:14;;;;;;;6.40;2.30;;;14.50;90.30;;;;;;5035149;28;20041;-68
2022/04/30 09:59:41;;;;;;;6.07;2.53;;;14.60;89.10;;;;;;5034454;28;20486;-68
2022/04/30 10:02:09;;;;;;;3.92;2.63;;;14.50;89.50;;;;;;5034590;28;20036;-68
2022/04/30 10:04:35;;;;;;;4.68;2.75;;;14.10;90.50;;;;;;5034863;28;20139;-67
2022/04/30 10:07:03;;;;;;;3.78;2.20;;;14.10;89.70;;;;;;5034958;28;20387;-68
2022/04/30 10:09:53;;;;;;;2.10;1.90;;;14.80;91.20;;;;;;5034682;28;20033;-68
2022/04/30 10:12:39;;;;;;;2.70;1.98;;;16.00;88.50;;;;;;5034441;28;20037;-68
2022/04/30 10:15:27;;;;;;;3.03;2.10;;;17.00;85.80;;;;;;5034709;28;20087;-67
2022/04/30 10:17:57;;;;;;;;;;;17.70;82.80;;;;;;5034902;28;20129;-68
2022/04/30 10:20:35;;;;;;;4.00;2.00;;;18.80;79.40;;;;;;5038870;28;19917;-68
2022/04/30 10:23:03;;;;;;;2.90;1.92;;;19.00;73.80;;;;;;5045377;28;20042;-66
2022/04/30 10:25:35;;;;;;;4.90;2.25;;;20.20;74.30;;;;;;5039547;28;20124;-68
2022/04/30 10:28:17;;;;;;;3.13;2.00;;;21.30;66.10;;;;;;5048766;28;20068;-65
2022/04/30 10:30:44;;;;;;;3.15;2.20;;;22.20;61.80;;;;;;5032039;28;20037;-66
2022/04/30 10:33:10;;;;;;;3.38;2.00;;;21.80;60.30;;;;;;5040057;28;20051;-66
2022/04/30 10:35:43;;;;;;;1.83;1.70;;;21.30;59.90;;;;;;5050151;28;20072;-66
2022/04/30 10:38:20;;;;;;;3.30;1.95;;;22.00;60.60;;;;;;5045516;28;20034;-66
2022/04/30 10:40:48;;;;;;;4.63;2.10;;;22.60;55.00;;;;;;5050041;28;20025;-66
2022/04/30 10:43:37;;;;;;;4.38;2.08;;;22.00;54.90;;;;;;5042510;28;20061;-64
2022/04/30 10:46:12;;;;;;;3.50;2.22;;;20.50;59.60;;;;;;5033659;28;20056;-65
2022/04/30 10:48:38;;;;;;;4.50;2.58;;;20.10;60.10;;;;;;5041460;28;20060;-65
2022/04/30 10:51:12;;;;;;;4.95;2.70;;;19.80;62.10;;;;;;5039466;28;20029;-65
2022/04/30 10:53:46;;;;;;;2.85;2.55;;;19.10;61.20;;;;;;5042329;28;20064;-66
2022/04/30 10:56:13;;;;;;;4.18;2.30;;;18.10;64.30;;;;;;5026788;28;20026;-65
2022/04/30 10:58:41;;;;;;;5.43;2.53;;;17.40;69.90;;;;;;5041201;28;20504;-67
2022/04/30 11:01:18;;;;;;;4.70;2.20;;;17.00;72.50;;;;;;5017476;28;20462;-67
2022/04/30 11:03:46;;;;;;;2.65;2.08;;;16.80;72.90;;;;;;5021971;28;20459;-67
2022/04/30 11:06:18;;;;;;;5.53;2.25;;;16.80;74.00;;;;;;5044854;28;20105;-67
2022/04/30 11:08:43;;;;;;;2.67;1.95;;;16.20;73.10;;;;;;5040834;28;20060;-67
2022/04/30 11:11:09;;;;;;;3.75;1.95;;;16.50;78.00;;;;;;5042651;28;20036;-67
2022/04/30 11:13:35;;;;;;;3.72;2.15;;;17.90;71.30;;;;;;5049082;28;20025;-67
2022/04/30 11:16:00;;;;;;;7.50;2.03;;;17.70;64.20;;;;;;5018911;28;20431;-67
2022/04/30 11:18:26;;;;;;;2.58;2.13;;;19.30;68.50;;;;;;5034311;28;20032;-67
2022/04/30 11:21:00;;;;;;;5.88;1.88;;;20.40;66.60;;;;;;5053086;28;20053;-67
2022/04/30 11:23:25;;;;;;;5.65;1.90;;;20.80;60.00;;;;;;5051700;28;20473;-67
2022/04/30 11:25:58;;;;;;;3.13;1.73;;;20.40;60.00;;;;;;5045582;28;20052;-67
2022/04/30 11:28:30;;;;;;;4.38;2.58;;;20.30;61.30;;;;;;5037754;28;20371;-67
2022/04/30 11:31:00;;;;;;;2.78;1.55;;;20.20;58.70;;;;;;5033522;28;20037;-67
2022/04/30 11:33:36;;;;;;;2.92;1.88;;;20.80;59.90;;;;;;5041313;28;20072;-66
2022/04/30 11:36:02;;;;;;;4.28;2.13;;;20.30;60.90;;;;;;5053028;28;20028;-67
2022/04/30 11:38:28;;;;;;;5.50;2.47;;;20.60;62.60;;;;;;5030739;28;20029;-67
2022/04/30 11:41:05;;;;;;;3.47;2.25;;;21.80;60.40;;;;;;5032867;28;20088;-67
2022/04/30 11:43:30;;;;;;;7.90;2.28;;;22.20;55.70;;;;;;5038888;28;20068;-66
2022/04/30 11:46:00;;;;;;;5.35;1.98;;;22.50;55.40;;;;;;5040249;28;20060;-66
2022/04/30 11:48:27;;;;;;;3.20;2.53;;;23.30;54.40;;;;;;5021144;28;20029;-64
2022/04/30 11:50:54;;;;;;;3.78;2.10;;;23.60;51.10;;;;;;5035026;28;20037;-61
2022/04/30 11:53:20;;;;;;;3.25;1.95;;;23.30;50.70;;;;;;5036600;28;20384;-61
2022/04/30 11:55:46;;;;;;;3.65;2.00;;;23.20;47.50;;;;;;5043479;28;20117;-61
2022/04/30 11:58:11;;;;;;;3.80;2.15;;;20.70;54.50;;;;;;5043954;28;20497;-61
2022/04/30 12:00:38;;;;;;;3.13;2.05;;;21.20;53.40;;;;;;5050000;28;20124;-61
2022/04/30 12:03:05;;;;;;;4.68;2.33;;;21.30;52.30;;;;;;5040470;28;20044;-61
2022/04/30 12:05:31;;;;;;;4.95;2.60;;;21.20;55.70;;;;;;5051716;28;20128;-61
2022/04/30 12:08:00;;;;;;;3.75;2.53;;;21.40;55.40;;;;;;5042605;28;20037;-61
2022/04/30 12:10:26;;;;;;;2.90;2.15;;;22.10;53.30;;;;;;5046589;28;20037;-61
2022/04/30 12:12:53;;;;;;;3.47;2.20;;;22.60;48.20;;;;;;5058659;28;20112;-61
2022/04/30 12:15:27;;;;;;;4.03;3.05;;;23.20;46.40;;;;;;5054683;28;20037;-60
2022/04/30 12:26:58;;;;;;;3.00;1.90;;;24.90;47.30;;;;;;5027195;28;20029;-58
2022/04/30 12:29:26;;;;;;;2.60;2.05;;;25.40;48.10;;;;;;5031486;28;20038;-61
2022/04/30 12:31:52;;;;;;;2.78;2.42;;;26.50;44.40;;;;;;5016686;28;20523;-64
2022/04/30 12:34:32;;;;;;;3.58;2.30;;;25.90;40.40;;;;;;5040195;28;20037;-59
2022/04/30 12:37:00;;;;;;;2.28;2.08;;;24.80;42.60;;;;;;5064561;28;20032;-65
2022/04/30 12:39:36;;;;;;;2.15;1.90;;;24.30;41.30;;;;;;5032256;28;20116;-68
2022/04/30 12:42:01;;;;;;;3.00;1.80;;;23.60;45.70;;;;;;5048578;28;20033;-66
2022/04/30 12:44:28;;;;;;;3.72;2.08;;;24.10;47.30;;;;;;5062022;28;20037;-66
2022/04/30 12:46:54;;;;;;;2.70;1.65;;;24.60;46.00;;;;;;5030792;28;20037;-67
2022/04/30 12:49:20;;;;;;;3.13;1.80;;;24.50;45.30;;;;;;5042832;28;20053;-68
2022/04/30 12:54:56;;;;;;;4.03;1.77;;;26.40;42.00;;;;;;5042950;28;20044;-64
2022/04/30 12:57:22;;;;;;;2.72;1.90;;;26.90;39.10;;;;;;5050929;28;20102;-60
2022/04/30 12:59:48;;;;;;;2.90;1.83;;;26.00;37.40;;;;;;5034523;28;20049;-63
2022/04/30 13:02:14;;;;;;;4.10;3.53;;;24.80;38.80;;;;;;5049769;28;20308;-65
2022/04/30 13:04:39;;;;;;;4.72;3.15;;;24.40;43.40;;;;;;5046382;28;20583;-64
2022/04/30 13:07:05;;;;;;;3.80;3.40;;;21.50;48.00;;;;;;5043465;28;20032;-63
2022/04/30 13:15:01;;;;;;;4.53;2.85;;;21.20;51.60;;;;;;5055634;28;20060;-62
2022/04/30 13:17:26;;;;;;;6.53;3.35;;;21.00;52.90;;;;;;5055130;28;20497;-64
2022/04/30 13:19:53;;;;;;;5.25;3.03;;;20.70;55.90;;;;;;5055240;28;20489;-63
2022/04/30 13:22:18;;;;;;;2.83;2.42;;;20.50;55.30;;;;;;5052299;28;20032;-60
2022/04/30 13:24:44;;;;;;;4.90;3.40;;;19.20;55.30;;;;;;5044020;28;20041;-63
2022/04/30 13:27:10;;;;;;;5.32;3.03;;;18.70;64.80;;;;;;5053008;28;20393;-63
2022/04/30 13:29:36;;;;;;;7.88;3.25;;;19.80;61.50;;;;;;5054186;28;20029;-63
2022/04/30 13:32:01;;;;;;;5.57;2.78;;;21.10;57.90;;;;;;5055111;28;20037;-64
2022/04/30 13:34:27;;;;;;;3.38;2.80;;;21.90;53.90;;;;;;5048754;28;20029;-65
2022/04/30 13:36:52;;;;;;;2.88;2.47;;;22.50;53.10;;;;;;5043142;28;20033;-63
2022/04/30 13:39:18;;;;;;;4.53;2.83;;;21.80;52.20;;;;;;5033564;28;20060;-65
2022/04/30 13:41:44;;;;;;;4.53;2.75;;;21.10;53.90;;;;;;5055237;28;20037;-62
2022/04/30 13:44:10;;;;;;;4.95;2.60;;;20.80;52.30;;;;;;5054419;28;21379;-65
2022/04/30 13:47:19;;;;;;;3.17;2.58;;;20.60;54.60;;;;;;5054408;28;20065;-63
2022/04/30 13:49:48;;;;;;;3.95;2.58;;;21.10;57.30;;;;;;5050987;28;20060;-61